createdAt,value
2022-12-14T00:02:41.883Z,64826.53
2022-12-14T00:07:49.178Z,64916.44
2022-12-14T00:12:53.173Z,64987.13
2022-12-14T00:17:57.335Z,64954.63
2022-12-14T00:23:02.654Z,64846.47
2022-12-14T00:28:06.766Z,64876.16
2022-12-14T00:33:10.639Z,64885.69
2022-12-14T00:38:15.936Z,64969.59
2022-12-14T00:43:19.890Z,64968.84
2022-12-14T00:48:25.985Z,64966.97
2022-12-14T00:53:32.227Z,64830.53
2022-12-14T00:58:36.259Z,64931.19
2022-12-14T01:03:40.280Z,65007.31
2022-12-14T01:08:45.952Z,64935.53
2022-12-14T01:13:49.940Z,65013.56
2022-12-14T01:18:54.281Z,65037.44
2022-12-14T01:24:01.428Z,64996.56
2022-12-14T01:29:06.384Z,64951.66
2022-12-14T01:34:11.073Z,64972.06
2022-12-14T01:39:17.379Z,64887.81
2022-12-14T01:44:54.315Z,64719.28
2022-12-14T01:50:04.390Z,64819.94
2022-12-14T01:55:14.501Z,64816.13
2022-12-14T02:00:19.310Z,64801.91
2022-12-14T02:05:26.222Z,64828.09
2022-12-14T02:10:33.573Z,64833.72
2022-12-14T02:15:40.197Z,64683.06
2022-12-14T02:20:53.056Z,64728.53
2022-12-14T02:26:35.699Z,64668.25
2022-12-14T02:31:51.600Z,64613.44
2022-12-14T02:36:59.130Z,64570.59
2022-12-14T02:42:09.855Z,64629.84
2022-12-14T02:47:21.838Z,64712.09
2022-12-14T02:52:38.329Z,64737.81
2022-12-14T02:57:47.681Z,64775.97
2022-12-14T03:02:54.266Z,64802.03
2022-12-14T03:08:01.182Z,64830.53
2022-12-14T03:13:12.752Z,64830.66
2022-12-14T03:18:21.076Z,64755.19
2022-12-14T03:23:31.018Z,64813.28
2022-12-14T03:28:45.761Z,64824.59
2022-12-14T03:33:55.161Z,64829.38
2022-12-14T03:39:01.950Z,64777.78
2022-12-14T03:44:20.144Z,64608.56
2022-12-14T03:49:44.386Z,64681.06
2022-12-14T03:54:54.947Z,64751.06
2022-12-14T04:00:04.925Z,64739.41
2022-12-14T04:05:24.586Z,64758.19
2022-12-14T04:10:50.107Z,64771.19
2022-12-14T04:16:15.080Z,64808.28
2022-12-14T04:21:29.683Z,64822.81
2022-12-14T04:26:41.331Z,64838.72
2022-12-14T04:31:52.038Z,64876.97
2022-12-14T04:37:01.274Z,64743.44
2022-12-14T04:42:08.701Z,64716.75
2022-12-14T04:47:17.726Z,64739.53
2022-12-14T04:52:27.867Z,64692.81
2022-12-14T04:57:37.542Z,64644.97
2022-12-14T05:02:58.185Z,64730.94
2022-12-14T05:08:12.229Z,64634.59
2022-12-14T05:13:19.956Z,64520.41
2022-12-14T05:18:24.353Z,64516.16
2022-12-14T05:23:30.222Z,64472.19
2022-12-14T05:28:34.357Z,64601.81
2022-12-14T05:33:38.292Z,64661.59
2022-12-14T05:38:43.548Z,64703.28
2022-12-14T05:43:47.545Z,64742.19
2022-12-14T05:48:52.929Z,64746.94
2022-12-14T05:53:58.465Z,64746.84
2022-12-14T05:59:02.701Z,64731.16
2022-12-14T06:04:06.751Z,64684.88
2022-12-14T06:09:15.733Z,64627.59
2022-12-14T06:14:19.855Z,64608.91
2022-12-14T06:19:23.864Z,64630.25
2022-12-14T06:24:29.230Z,64657.34
2022-12-14T06:29:33.304Z,64703.41
2022-12-14T06:34:42.144Z,64752.53
2022-12-14T06:39:54.091Z,64771.63
2022-12-14T06:44:58.441Z,64759.97
2022-12-14T06:50:02.355Z,64793.84
2022-12-14T06:55:08.888Z,64804.28
2022-12-14T07:00:13.523Z,64840.50
2022-12-14T07:05:17.968Z,64860.66
2022-12-14T07:10:23.473Z,64872.31
2022-12-14T07:17:03.785Z,64864.59
2022-12-14T07:22:08.103Z,64878.47
2022-12-14T07:27:12.020Z,64841.81
2022-12-14T07:32:17.462Z,64868.81
2022-12-14T07:37:21.714Z,64914.53
2022-12-14T07:42:25.574Z,64936.72
2022-12-14T07:47:32.012Z,64941.47
2022-12-14T07:52:37.711Z,64964.41
2022-12-14T07:57:41.468Z,64942.34
2022-12-14T08:02:46.770Z,65015.91
2022-12-14T08:07:50.780Z,65034.78
2022-12-14T08:12:54.593Z,65005.72
2022-12-14T08:17:59.979Z,65007.06
2022-12-14T08:23:04.690Z,65050.19
2022-12-14T08:28:08.575Z,65035.66
2022-12-14T08:33:14.016Z,65036.38
2022-12-14T08:38:18.011Z,65050.72
2022-12-14T08:43:25.111Z,65112.44
2022-12-14T08:48:31.023Z,65083.66
2022-12-14T08:53:35.158Z,65093.75
2022-12-14T08:58:40.519Z,65121.38
2022-12-14T09:03:47.276Z,65018.97
2022-12-14T09:08:51.823Z,65119.91
2022-12-14T09:13:58.338Z,65085.25
2022-12-14T09:19:04.055Z,65058.69
2022-12-14T09:24:08.077Z,64978.00
2022-12-14T09:29:15.005Z,65006.25
2022-12-14T09:34:20.397Z,65070.25
2022-12-14T09:39:24.436Z,65053.81
2022-12-14T09:44:47.459Z,64960.69
2022-12-14T09:49:58.421Z,65041.16
2022-12-14T09:55:05.486Z,65016.31
2022-12-14T10:00:18.139Z,65020.56
2022-12-14T10:05:42.295Z,65023.00
2022-12-14T10:10:56.723Z,65135.94
2022-12-14T10:16:11.701Z,65134.75
2022-12-14T10:21:20.355Z,65139.44
2022-12-14T10:26:28.127Z,65176.13
2022-12-14T10:31:40.725Z,65136.47
2022-12-14T10:36:54.160Z,65177.28
2022-12-14T10:42:02.778Z,65151.78
2022-12-14T10:47:15.421Z,65123.19
2022-12-14T10:52:24.176Z,65080.56
2022-12-14T10:57:29.159Z,65093.31
2022-12-14T11:02:38.173Z,65112.34
2022-12-14T11:07:45.907Z,65085.78
2022-12-14T11:13:01.543Z,65121.06
2022-12-14T11:18:24.395Z,65069.31
2022-12-14T11:23:31.667Z,65095.44
2022-12-14T11:28:39.232Z,65078.88
2022-12-14T11:33:49.896Z,65052.53
2022-12-14T11:39:00.389Z,64972.25
2022-12-14T11:44:22.887Z,65045.09
2022-12-14T11:49:29.235Z,65001.34
2022-12-14T11:54:35.157Z,65030.13
2022-12-14T11:59:42.252Z,65047.66
2022-12-14T12:04:49.870Z,65023.88
2022-12-14T12:14:37.036Z,65066.34
2022-12-14T12:19:41.654Z,65037.97
2022-12-14T12:25:24.084Z,65049.34
2022-12-14T12:30:28.666Z,64940.31
2022-12-14T12:35:38.340Z,64984.59
2022-12-14T12:40:56.461Z,65000.28
2022-12-14T12:46:06.368Z,65033.72
2022-12-14T12:51:15.120Z,65026.41
2022-12-14T12:56:23.944Z,65037.03
2022-12-14T13:01:34.662Z,65013.03
2022-12-14T13:06:43.012Z,65029.50
2022-12-14T13:11:47.840Z,65033.97
2022-12-14T13:16:54.993Z,65018.97
2022-12-14T13:22:05.239Z,65060.28
2022-12-14T13:27:40.699Z,65013.88
2022-12-14T13:33:03.028Z,65002.41
2022-12-14T13:38:33.694Z,65017.16
2022-12-14T13:44:06.542Z,65000.81
2022-12-14T13:49:21.536Z,64989.03
2022-12-14T13:54:30.395Z,64957.94
2022-12-14T13:59:36.810Z,64994.53
2022-12-14T14:04:42.873Z,65006.25
2022-12-14T14:09:59.926Z,64992.97
2022-12-14T14:15:24.351Z,64947.97
2022-12-14T14:20:42.933Z,65437.44
2022-12-14T14:25:51.594Z,65099.69
2022-12-14T14:30:57.805Z,65073.66
2022-12-14T14:36:15.138Z,65053.59
2022-12-14T14:41:25.425Z,65074.72
2022-12-14T14:46:36.620Z,65030.66
2022-12-14T14:51:41.977Z,65061.44
2022-12-14T14:56:46.437Z,65032.34
2022-12-14T15:01:56.033Z,64980.22
2022-12-14T15:07:10.039Z,64911.78
2022-12-14T15:12:30.968Z,64920.16
2022-12-14T15:17:35.227Z,64969.72
2022-12-14T15:22:44.267Z,64950.41
2022-12-14T15:27:49.129Z,64932.06
2022-12-14T15:32:56.568Z,64902.00
2022-12-14T15:38:06.249Z,64951.78
2022-12-14T15:43:19.335Z,64964.19
2022-12-14T15:48:25.509Z,64998.16
2022-12-14T15:53:34.285Z,65061.34
2022-12-14T15:58:41.004Z,65006.88
2022-12-14T16:03:47.859Z,65040.94
2022-12-14T16:08:58.422Z,65037.97
2022-12-14T16:14:06.562Z,64998.16
2022-12-14T16:19:26.413Z,65025.34
2022-12-14T16:24:33.062Z,65071.00
2022-12-14T16:29:37.008Z,65114.38
2022-12-14T16:34:46.794Z,65076.22
2022-12-14T16:39:52.862Z,65053.06
2022-12-14T16:44:56.852Z,65191.00
2022-12-14T16:50:00.869Z,65091.63
2022-12-14T16:55:13.199Z,65133.06
2022-12-14T17:00:23.265Z,65145.81
2022-12-14T17:05:33.045Z,65086.94
2022-12-14T17:10:39.246Z,65118.50
2022-12-14T17:15:56.791Z,65162.84
2022-12-14T17:21:01.753Z,65103.53
2022-12-14T17:26:07.321Z,65119.25
2022-12-14T17:31:12.373Z,65199.50
2022-12-14T17:36:16.464Z,65161.22
2022-12-14T17:41:26.723Z,65114.56
2022-12-14T17:46:30.910Z,65056.03
2022-12-14T17:51:42.036Z,64987.13
2022-12-14T17:56:48.061Z,65067.19
2022-12-14T18:01:52.155Z,65018.31
2022-12-14T18:06:56.259Z,64992.44
2022-12-14T18:12:22.651Z,65034.25
2022-12-14T18:17:25.615Z,64956.22
2022-12-14T18:22:29.732Z,64946.69
2022-12-14T18:27:35.080Z,65000.91
2022-12-14T18:32:38.988Z,65022.25
2022-12-14T18:37:42.964Z,64963.13
2022-12-14T18:42:55.093Z,65025.22
2022-12-14T18:48:00.913Z,65057.63
2022-12-14T18:53:04.823Z,65095.44
2022-12-14T18:58:16.502Z,65037.78
2022-12-14T19:03:20.973Z,65004.09
2022-12-14T19:08:25.439Z,65047.22
2022-12-14T19:13:31.559Z,65045.31
2022-12-14T19:18:36.597Z,65006.66
2022-12-14T19:23:41.864Z,65027.47
2022-12-14T19:28:47.770Z,65018.03
2022-12-14T19:33:51.895Z,64965.16
2022-12-14T19:38:56.290Z,64965.47
2022-12-14T19:44:01.819Z,64972.91
2022-12-14T19:49:07.833Z,64990.72
2022-12-14T19:54:12.118Z,64991.69
2022-12-14T19:59:18.038Z,65017.06
2022-12-14T20:04:22.437Z,64956.13
2022-12-14T20:09:26.842Z,64981.28
2022-12-14T20:14:32.385Z,65047.53
2022-12-14T20:19:37.227Z,65056.56
2022-12-14T20:24:41.342Z,65046.69
2022-12-14T20:29:46.739Z,65071.44
2022-12-14T20:34:50.786Z,65026.41
2022-12-14T20:39:54.716Z,65050.94
2022-12-14T20:45:05.279Z,64965.38
2022-12-14T20:50:10.900Z,65029.50
2022-12-14T20:55:14.988Z,65013.78
2022-12-14T21:00:20.557Z,65056.56
2022-12-14T21:05:24.935Z,65108.19
2022-12-14T21:10:29.307Z,65031.09
2022-12-14T21:15:35.470Z,65069.97
2022-12-14T21:20:39.442Z,65102.25
2022-12-14T21:25:44.134Z,65090.25
2022-12-14T21:30:50.043Z,65038.50
2022-12-14T21:35:54.121Z,65064.44
2022-12-14T21:41:15.263Z,65051.25
2022-12-14T21:46:23.568Z,65009.84
2022-12-14T21:51:29.734Z,65036.91
2022-12-14T21:56:53.330Z,65099.06
2022-12-14T22:02:00.501Z,65057.53
2022-12-14T22:07:05.083Z,65084.19
2022-12-14T22:12:09.684Z,65026.00
2022-12-14T22:17:15.865Z,65007.06
2022-12-14T22:22:20.038Z,65070.59
2022-12-14T22:27:24.066Z,65101.19
2022-12-14T22:32:29.620Z,65047.66
2022-12-14T22:37:33.766Z,65134.88
2022-12-14T22:42:37.806Z,65125.63
2022-12-14T22:47:43.408Z,65151.78
2022-12-14T22:52:49.532Z,65120.84
2022-12-14T22:57:56.187Z,65026.00
2022-12-14T23:03:01.992Z,64963.75
2022-12-14T23:08:07.006Z,64974.69
2022-12-14T23:13:29.152Z,64988.81
2022-12-14T23:18:52.867Z,65123.50
2022-12-14T23:24:14.476Z,65011.97
2022-12-14T23:29:36.247Z,65033.72
2022-12-14T23:34:59.110Z,65047.66
2022-12-14T23:40:20.666Z,65156.56
2022-12-14T23:45:42.404Z,65145.81
2022-12-14T23:51:05.176Z,65131.06
2022-12-14T23:56:27.015Z,65155.50
